sensor_id;sensor_type;location;lat;lon;timestamp;P1;durP1;ratioP1;P2;durP2;ratioP2
59052;SDS011;44843;44.728;10.396;2022-12-07T17:57:42;35.78;;;17.13;;
59052;SDS011;44843;44.728;10.396;2022-12-07T18:00:07;40.38;;;19.02;;
59052;SDS011;44843;44.728;10.396;2022-12-07T18:02:35;33.15;;;17.73;;
59052;SDS011;44843;44.728;10.396;2022-12-07T18:05:00;46.13;;;19.85;;
59052;SDS011;44843;44.728;10.396;2022-12-07T18:07:25;37.65;;;18.73;;
59052;SDS011;44843;44.728;10.396;2022-12-07T18:09:51;40.13;;;19.83;;
59052;SDS011;44843;44.728;10.396;2022-12-07T18:12:16;38.47;;;18.08;;
59052;SDS011;44843;44.728;10.396;2022-12-07T18:14:42;38.78;;;18.92;;
59052;SDS011;44843;44.728;10.396;2022-12-07T18:17:07;40.10;;;20.10;;
59052;SDS011;44843;44.728;10.396;2022-12-07T18:19:32;40.22;;;20.70;;
59052;SDS011;44843;44.728;10.396;2022-12-07T18:22:01;39.90;;;19.80;;
59052;SDS011;44843;44.728;10.396;2022-12-07T18:24:28;42.50;;;20.73;;
59052;SDS011;44843;44.728;10.396;2022-12-07T18:26:53;42.55;;;19.90;;
59052;SDS011;44843;44.728;10.396;2022-12-07T18:29:18;46.72;;;19.42;;
59052;SDS011;44843;44.728;10.396;2022-12-07T18:31:45;46.92;;;20.90;;
59052;SDS011;44843;44.728;10.396;2022-12-07T18:34:16;48.30;;;21.55;;
59052;SDS011;44843;44.728;10.396;2022-12-07T18:36:43;39.42;;;20.38;;
59052;SDS011;44843;44.728;10.396;2022-12-07T18:39:10;44.30;;;20.48;;
59052;SDS011;44843;44.728;10.396;2022-12-07T18:41:37;41.80;;;19.60;;
59052;SDS011;44843;44.728;10.396;2022-12-07T18:44:04;51.40;;;22.80;;
59052;SDS011;44843;44.728;10.396;2022-12-07T18:46:30;50.90;;;21.75;;
59052;SDS011;44843;44.728;10.396;2022-12-07T18:48:55;40.70;;;18.92;;
59052;SDS011;44843;44.728;10.396;2022-12-07T18:51:21;38.90;;;18.80;;
59052;SDS011;44843;44.728;10.396;2022-12-07T18:53:47;42.88;;;19.55;;
59052;SDS011;44843;44.728;10.396;2022-12-07T18:56:14;48.00;;;19.83;;
59052;SDS011;44843;44.728;10.396;2022-12-07T18:58:42;42.38;;;19.45;;
59052;SDS011;44843;44.728;10.396;2022-12-07T19:01:26;45.08;;;20.10;;
59052;SDS011;44843;44.728;10.396;2022-12-07T19:03:52;41.95;;;19.40;;
59052;SDS011;44843;44.728;10.396;2022-12-07T19:06:17;43.00;;;18.85;;
59052;SDS011;44843;44.728;10.396;2022-12-07T19:08:43;42.47;;;19.33;;
59052;SDS011;44843;44.728;10.396;2022-12-07T19:11:18;39.17;;;17.58;;
59052;SDS011;44843;44.728;10.396;2022-12-07T19:14:06;36.75;;;17.08;;
59052;SDS011;44843;44.728;10.396;2022-12-07T19:16:32;40.30;;;18.75;;
59052;SDS011;44843;44.728;10.396;2022-12-07T19:18:57;37.78;;;17.27;;
59052;SDS011;44843;44.728;10.396;2022-12-07T19:21:23;37.33;;;16.48;;
59052;SDS011;44843;44.728;10.396;2022-12-07T19:23:48;38.30;;;17.48;;
59052;SDS011;44843;44.728;10.396;2022-12-07T19:26:14;38.45;;;17.85;;
59052;SDS011;44843;44.728;10.396;2022-12-07T19:28:39;39.97;;;18.67;;
59052;SDS011;44843;44.728;10.396;2022-12-07T19:31:05;42.60;;;19.88;;
59052;SDS011;44843;44.728;10.396;2022-12-07T19:33:31;34.38;;;17.63;;
59052;SDS011;44843;44.728;10.396;2022-12-07T19:35:56;41.22;;;19.15;;
59052;SDS011;44843;44.728;10.396;2022-12-07T19:38:22;39.67;;;18.60;;
59052;SDS011;44843;44.728;10.396;2022-12-07T19:40:47;46.33;;;21.00;;
59052;SDS011;44843;44.728;10.396;2022-12-07T19:43:12;41.00;;;19.23;;
59052;SDS011;44843;44.728;10.396;2022-12-07T19:45:38;44.58;;;20.17;;
59052;SDS011;44843;44.728;10.396;2022-12-07T19:48:03;46.53;;;20.08;;
59052;SDS011;44843;44.728;10.396;2022-12-07T19:50:28;49.00;;;21.00;;
59052;SDS011;44843;44.728;10.396;2022-12-07T19:52:54;46.72;;;19.67;;
59052;SDS011;44843;44.728;10.396;2022-12-07T19:55:20;48.38;;;20.95;;
59052;SDS011;44843;44.728;10.396;2022-12-07T19:57:45;46.85;;;20.10;;
59052;SDS011;44843;44.728;10.396;2022-12-07T20:00:11;46.85;;;20.27;;
59052;SDS011;44843;44.728;10.396;2022-12-07T20:02:37;38.15;;;19.02;;
59052;SDS011;44843;44.728;10.396;2022-12-07T20:05:02;44.85;;;19.10;;
59052;SDS011;44843;44.728;10.396;2022-12-07T20:07:28;48.05;;;19.75;;
59052;SDS011;44843;44.728;10.396;2022-12-07T20:09:53;45.35;;;19.42;;
59052;SDS011;44843;44.728;10.396;2022-12-07T20:12:18;42.38;;;19.40;;
59052;SDS011;44843;44.728;10.396;2022-12-07T20:15:02;40.28;;;18.83;;
59052;SDS011;44843;44.728;10.396;2022-12-07T20:17:28;39.05;;;17.58;;
59052;SDS011;44843;44.728;10.396;2022-12-07T20:19:53;39.42;;;18.30;;
59052;SDS011;44843;44.728;10.396;2022-12-07T20:22:18;37.92;;;18.30;;
59052;SDS011;44843;44.728;10.396;2022-12-07T20:24:44;38.70;;;17.90;;
59052;SDS011;44843;44.728;10.396;2022-12-07T20:27:09;38.53;;;18.38;;
59052;SDS011;44843;44.728;10.396;2022-12-07T20:29:35;38.42;;;17.95;;
59052;SDS011;44843;44.728;10.396;2022-12-07T20:32:00;37.60;;;18.98;;
59052;SDS011;44843;44.728;10.396;2022-12-07T20:34:26;35.42;;;16.73;;
59052;SDS011;44843;44.728;10.396;2022-12-07T20:36:52;32.78;;;16.75;;
59052;SDS011;44843;44.728;10.396;2022-12-07T20:39:18;34.97;;;16.27;;
59052;SDS011;44843;44.728;10.396;2022-12-07T20:41:44;41.70;;;17.85;;
59052;SDS011;44843;44.728;10.396;2022-12-07T20:44:28;34.78;;;16.67;;
59052;SDS011;44843;44.728;10.396;2022-12-07T20:46:53;34.42;;;17.00;;
59052;SDS011;44843;44.728;10.396;2022-12-07T20:49:19;31.45;;;16.30;;
59052;SDS011;44843;44.728;10.396;2022-12-07T20:51:44;32.90;;;16.67;;
59052;SDS011;44843;44.728;10.396;2022-12-07T20:54:11;31.50;;;16.75;;
59052;SDS011;44843;44.728;10.396;2022-12-07T20:56:37;31.45;;;16.98;;
59052;SDS011;44843;44.728;10.396;2022-12-07T20:59:03;36.33;;;17.55;;
59052;SDS011;44843;44.728;10.396;2022-12-07T21:01:31;32.20;;;16.80;;
59052;SDS011;44843;44.728;10.396;2022-12-07T21:03:57;30.40;;;16.65;;
59052;SDS011;44843;44.728;10.396;2022-12-07T21:06:24;34.70;;;18.15;;
59052;SDS011;44843;44.728;10.396;2022-12-07T21:08:52;34.67;;;17.88;;
59052;SDS011;44843;44.728;10.396;2022-12-07T21:11:20;33.08;;;16.73;;
59052;SDS011;44843;44.728;10.396;2022-12-07T21:13:47;34.20;;;16.90;;
59052;SDS011;44843;44.728;10.396;2022-12-07T21:16:14;38.80;;;17.35;;
59052;SDS011;44843;44.728;10.396;2022-12-07T21:18:45;38.38;;;17.90;;
59052;SDS011;44843;44.728;10.396;2022-12-07T21:21:12;32.80;;;16.65;;
59052;SDS011;44843;44.728;10.396;2022-12-07T21:23:41;32.85;;;17.63;;
59052;SDS011;44843;44.728;10.396;2022-12-07T21:26:08;37.03;;;18.42;;
59052;SDS011;44843;44.728;10.396;2022-12-07T21:28:34;33.47;;;17.42;;
59052;SDS011;44843;44.728;10.396;2022-12-07T21:31:00;39.92;;;19.10;;
59052;SDS011;44843;44.728;10.396;2022-12-07T21:33:25;34.90;;;17.80;;
59052;SDS011;44843;44.728;10.396;2022-12-07T21:35:51;35.13;;;17.50;;
59052;SDS011;44843;44.728;10.396;2022-12-07T21:38:16;34.90;;;18.08;;
59052;SDS011;44843;44.728;10.396;2022-12-07T21:40:42;35.08;;;17.58;;
59052;SDS011;44843;44.728;10.396;2022-12-07T21:43:07;34.88;;;18.05;;
59052;SDS011;44843;44.728;10.396;2022-12-07T21:45:33;34.67;;;16.40;;
59052;SDS011;44843;44.728;10.396;2022-12-07T21:47:58;35.90;;;17.92;;
59052;SDS011;44843;44.728;10.396;2022-12-07T21:50:24;29.75;;;15.82;;
59052;SDS011;44843;44.728;10.396;2022-12-07T21:52:49;28.30;;;15.43;;
59052;SDS011;44843;44.728;10.396;2022-12-07T21:55:15;29.92;;;15.90;;
59052;SDS011;44843;44.728;10.396;2022-12-07T21:57:40;34.13;;;17.38;;
59052;SDS011;44843;44.728;10.396;2022-12-07T22:00:06;33.20;;;17.40;;
59052;SDS011;44843;44.728;10.396;2022-12-07T22:02:32;33.35;;;17.13;;
59052;SDS011;44843;44.728;10.396;2022-12-07T22:04:57;36.65;;;18.05;;
59052;SDS011;44843;44.728;10.396;2022-12-07T22:07:22;35.45;;;18.05;;
59052;SDS011;44843;44.728;10.396;2022-12-07T22:09:48;34.10;;;17.08;;
59052;SDS011;44843;44.728;10.396;2022-12-07T22:12:14;33.38;;;17.30;;
59052;SDS011;44843;44.728;10.396;2022-12-07T22:14:39;33.05;;;17.65;;
59052;SDS011;44843;44.728;10.396;2022-12-07T22:17:23;37.10;;;16.98;;
59052;SDS011;44843;44.728;10.396;2022-12-07T22:19:48;33.60;;;16.70;;
59052;SDS011;44843;44.728;10.396;2022-12-07T22:22:13;36.80;;;17.95;;
59052;SDS011;44843;44.728;10.396;2022-12-07T22:24:40;32.80;;;18.00;;
59052;SDS011;44843;44.728;10.396;2022-12-07T22:27:06;37.55;;;18.42;;
59052;SDS011;44843;44.728;10.396;2022-12-07T22:29:31;34.75;;;17.60;;
59052;SDS011;44843;44.728;10.396;2022-12-07T22:31:56;35.38;;;18.45;;
59052;SDS011;44843;44.728;10.396;2022-12-07T22:34:22;32.75;;;17.85;;
59052;SDS011;44843;44.728;10.396;2022-12-07T22:36:47;29.17;;;16.58;;
59052;SDS011;44843;44.728;10.396;2022-12-07T22:39:13;32.92;;;17.80;;
59052;SDS011;44843;44.728;10.396;2022-12-07T22:41:38;35.30;;;17.27;;
59052;SDS011;44843;44.728;10.396;2022-12-07T22:44:05;33.03;;;17.58;;
59052;SDS011;44843;44.728;10.396;2022-12-07T22:46:31;31.35;;;17.23;;
59052;SDS011;44843;44.728;10.396;2022-12-07T22:48:58;32.70;;;17.90;;
59052;SDS011;44843;44.728;10.396;2022-12-07T22:51:27;34.15;;;16.90;;
59052;SDS011;44843;44.728;10.396;2022-12-07T22:53:54;34.15;;;17.70;;
59052;SDS011;44843;44.728;10.396;2022-12-07T22:56:23;31.60;;;16.70;;
59052;SDS011;44843;44.728;10.396;2022-12-07T22:58:49;34.72;;;18.02;;
59052;SDS011;44843;44.728;10.396;2022-12-07T23:01:15;39.38;;;18.88;;
59052;SDS011;44843;44.728;10.396;2022-12-07T23:03:41;34.30;;;17.58;;
59052;SDS011;44843;44.728;10.396;2022-12-07T23:06:07;34.45;;;18.23;;
59052;SDS011;44843;44.728;10.396;2022-12-07T23:08:34;35.92;;;17.65;;
59052;SDS011;44843;44.728;10.396;2022-12-07T23:11:01;38.40;;;18.42;;
59052;SDS011;44843;44.728;10.396;2022-12-07T23:13:28;36.90;;;17.88;;
59052;SDS011;44843;44.728;10.396;2022-12-07T23:16:00;32.78;;;18.10;;
59052;SDS011;44843;44.728;10.396;2022-12-07T23:18:37;35.70;;;17.63;;
59052;SDS011;44843;44.728;10.396;2022-12-07T23:21:04;38.45;;;18.80;;
59052;SDS011;44843;44.728;10.396;2022-12-07T23:23:29;32.13;;;16.95;;
59052;SDS011;44843;44.728;10.396;2022-12-07T23:26:00;37.22;;;17.85;;
59052;SDS011;44843;44.728;10.396;2022-12-07T23:28:28;33.60;;;17.33;;
59052;SDS011;44843;44.728;10.396;2022-12-07T23:30:59;35.85;;;18.38;;
59052;SDS011;44843;44.728;10.396;2022-12-07T23:33:26;33.97;;;17.88;;
59052;SDS011;44843;44.728;10.396;2022-12-07T23:35:51;33.97;;;17.65;;
59052;SDS011;44843;44.728;10.396;2022-12-07T23:38:16;32.22;;;17.45;;
59052;SDS011;44843;44.728;10.396;2022-12-07T23:40:42;31.77;;;16.85;;
59052;SDS011;44843;44.728;10.396;2022-12-07T23:43:07;31.08;;;17.40;;
59052;SDS011;44843;44.728;10.396;2022-12-07T23:45:32;30.15;;;16.70;;
59052;SDS011;44843;44.728;10.396;2022-12-07T23:47:58;31.85;;;17.38;;
59052;SDS011;44843;44.728;10.396;2022-12-07T23:50:23;28.35;;;17.00;;
59052;SDS011;44843;44.728;10.396;2022-12-07T23:52:48;33.25;;;17.23;;
59052;SDS011;44843;44.728;10.396;2022-12-07T23:55:14;33.70;;;18.15;;
59052;SDS011;44843;44.728;10.396;2022-12-07T23:57:40;32.22;;;17.40;;
